Time;durP1;ratioP1;P1;durP2;ratioP2;P2;SDS_P1;SDS_P2;PMS_P1;PMS_P2;Temp;Humidity;BMP_temperature;BMP_pressure;BME280_temperature;BME280_humidity;BME280_pressure;Samples;Min_cycle;Max_cycle;Signal;HPM_P1;HPM_P2
2023/03/04 00:01:55;;;;;;;20.07;14.33;;;2.20;99.90;;;;;;4957263;28;20479;-55
2023/03/04 00:04:22;;;;;;;26.80;13.27;;;2.20;99.90;;;;;;4947753;29;20517;-54
2023/03/04 00:06:49;;;;;;;19.93;14.00;;;2.30;99.90;;;;;;4954079;28;20475;-54
2023/03/04 00:09:15;;;;;;;22.60;14.53;;;2.30;99.90;;;;;;4952108;28;20483;-55
2023/03/04 00:11:43;;;;;;;21.93;14.87;;;2.40;20.40;;;;;;4952441;28;20458;-55
2023/03/04 00:14:10;;;;;;;23.93;15.57;;;2.40;23.90;;;;;;4949918;29;20470;-54
2023/03/04 00:16:37;;;;;;;23.80;14.70;;;2.40;26.60;;;;;;4957419;28;20529;-53
2023/03/04 00:19:03;;;;;;;27.40;13.90;;;2.40;25.80;;;;;;4953545;28;20482;-56
2023/03/04 00:21:30;;;;;;;25.97;14.13;;;2.50;27.80;;;;;;4949305;29;20849;-54
2023/03/04 00:23:57;;;;;;;23.80;13.20;;;2.60;30.70;;;;;;4955588;28;20526;-55
2023/03/04 00:26:23;;;;;;;24.23;14.10;;;2.60;35.50;;;;;;4955913;28;20977;-54
2023/03/04 00:28:51;;;;;;;30.53;14.80;;;2.60;36.40;;;;;;4955772;28;20470;-55
2023/03/04 00:31:18;;;;;;;23.50;13.50;;;2.70;40.20;;;;;;4955401;29;20462;-55
2023/03/04 00:33:45;;;;;;;23.57;13.20;;;2.60;41.20;;;;;;4955738;28;20462;-56
2023/03/04 00:36:12;;;;;;;42.33;13.93;;;2.60;40.40;;;;;;4946164;29;20482;-54
2023/03/04 00:38:38;;;;;;;26.63;13.80;;;2.70;43.60;;;;;;4953119;28;20887;-55
2023/03/04 00:41:05;;;;;;;21.80;12.30;;;2.70;42.40;;;;;;4955138;29;20470;-55
2023/03/04 00:43:31;;;;;;;23.73;13.10;;;2.70;42.10;;;;;;4955224;28;20542;-55
2023/03/04 00:45:59;;;;;;;28.43;12.40;;;2.70;41.30;;;;;;4955315;28;20495;-54
2023/03/04 00:48:26;;;;;;;22.10;11.90;;;2.60;40.60;;;;;;4955186;29;21035;-55
2023/03/04 00:50:53;;;;;;;33.50;11.30;;;2.70;36.80;;;;;;4954403;28;20566;-56
2023/03/04 00:53:19;;;;;;;25.70;11.63;;;2.60;37.30;;;;;;4952051;28;20470;-55
2023/03/04 00:55:46;;;;;;;20.53;11.30;;;2.70;39.10;;;;;;4952150;28;20521;-54
2023/03/04 00:58:12;;;;;;;19.67;10.70;;;2.70;39.10;;;;;;4954269;28;20969;-54
2023/03/04 01:00:39;;;;;;;23.37;11.00;;;2.70;36.60;;;;;;4954404;28;20612;-54
2023/03/04 01:03:07;;;;;;;25.30;12.10;;;2.70;40.00;;;;;;4954135;28;20487;-55
2023/03/04 01:05:34;;;;;;;23.20;10.70;;;2.70;38.90;;;;;;4953523;28;20532;-54
2023/03/04 01:08:01;;;;;;;26.73;11.70;;;2.70;39.10;;;;;;4954972;28;20459;-55
2023/03/04 01:10:28;;;;;;;18.57;10.50;;;2.70;40.60;;;;;;4954164;28;20918;-54
2023/03/04 01:12:54;;;;;;;26.07;9.80;;;2.70;38.20;;;;;;4954601;29;20463;-56
2023/03/04 01:15:21;;;;;;;20.67;8.97;;;2.70;37.20;;;;;;4954325;28;20525;-57
2023/03/04 01:17:48;;;;;;;18.47;8.90;;;2.70;39.10;;;;;;4954809;28;20513;-55
2023/03/04 01:20:16;;;;;;;20.70;8.50;;;2.70;40.20;;;;;;4950003;28;20486;-55
2023/03/04 01:22:43;;;;;;;20.47;9.80;;;2.70;37.80;;;;;;4951067;29;20486;-54
2023/03/04 01:25:10;;;;;;;20.43;9.40;;;2.80;38.30;;;;;;4951544;28;20467;-55
2023/03/04 01:27:37;;;;;;;20.17;8.57;;;2.80;38.80;;;;;;4950354;29;20471;-55
2023/03/04 01:30:04;;;;;;;20.33;8.27;;;2.80;37.30;;;;;;4952100;28;21075;-56
2023/03/04 01:32:31;;;;;;;19.27;8.03;;;2.80;36.90;;;;;;4949197;28;20525;-54
2023/03/04 01:34:57;;;;;;;21.17;9.00;;;2.80;35.00;;;;;;4954221;29;20471;-56
2023/03/04 01:37:25;;;;;;;18.70;8.40;;;2.80;32.80;;;;;;4948396;28;20476;-56
2023/03/04 01:39:52;;;;;;;29.70;7.93;;;2.80;34.00;;;;;;4952715;28;20494;-52
2023/03/04 01:42:21;;;;;;;26.47;8.70;;;2.80;33.50;;;;;;4955777;28;20855;-52
2023/03/04 01:44:48;;;;;;;21.47;8.73;;;2.90;35.20;;;;;;4951665;29;20466;-52
2023/03/04 01:47:15;;;;;;;24.73;8.33;;;2.90;35.10;;;;;;4945842;29;20518;-52
2023/03/04 01:49:43;;;;;;;26.63;9.80;;;2.90;35.10;;;;;;4949000;28;20543;-52
2023/03/04 01:52:12;;;;;;;25.87;9.13;;;2.90;35.60;;;;;;4954256;29;20467;-51
2023/03/04 01:54:40;;;;;;;20.40;9.10;;;2.90;34.60;;;;;;4954052;28;20467;-52
2023/03/04 01:57:16;;;;;;;30.67;8.53;;;3.00;34.60;;;;;;4951213;29;20880;-52
2023/03/04 01:59:43;;;;;;;19.13;7.50;;;3.00;34.60;;;;;;4954595;28;20482;-52
2023/03/04 02:02:09;;;;;;;19.27;7.40;;;3.00;33.20;;;;;;4944734;29;20483;-52
2023/03/04 02:04:36;;;;;;;14.83;7.20;;;3.00;32.10;;;;;;4943660;29;20533;-52
2023/03/04 02:07:04;;;;;;;33.87;8.37;;;3.00;29.50;;;;;;4950094;29;20467;-51
2023/03/04 02:09:32;;;;;;;20.50;8.17;;;3.00;27.80;;;;;;4953321;28;20839;-52
2023/03/04 02:12:01;;;;;;;25.90;7.80;;;3.00;28.30;;;;;;4948323;28;20976;-52
2023/03/04 02:14:28;;;;;;;28.80;7.83;;;3.10;28.30;;;;;;4953271;28;20956;-51
2023/03/04 02:16:54;;;;;;;18.47;7.73;;;3.10;26.40;;;;;;4947075;28;20466;-51
2023/03/04 02:19:32;;;;;;;22.27;7.10;;;3.10;26.40;;;;;;4952198;28;20957;-52
2023/03/04 02:21:58;;;;;;;22.47;7.00;;;3.10;24.10;;;;;;4951177;28;20623;-52
2023/03/04 02:24:30;;;;;;;18.50;7.33;;;3.10;24.50;;;;;;4949231;28;20466;-52
2023/03/04 02:26:59;;;;;;;19.00;7.30;;;3.10;24.10;;;;;;4951979;28;20463;-52
2023/03/04 02:29:25;;;;;;;19.87;8.00;;;3.10;22.90;;;;;;4945802;28;20585;-52
2023/03/04 02:31:53;;;;;;;17.83;7.63;;;3.10;21.10;;;;;;4947044;28;20463;-51
2023/03/04 02:34:23;;;;;;;19.20;6.43;;;3.20;20.20;;;;;;4950675;28;20499;-51
2023/03/04 02:36:52;;;;;;;27.43;8.40;;;3.10;99.90;;;;;;4945341;28;20464;-52
2023/03/04 02:39:25;;;;;;;25.30;6.33;;;3.20;99.90;;;;;;4950068;28;20613;-52
2023/03/04 02:41:53;;;;;;;26.47;6.60;;;3.20;99.90;;;;;;4949447;28;20463;-52
2023/03/04 02:44:24;;;;;;;18.87;6.47;;;3.20;99.90;;;;;;4945154;28;20557;-52
2023/03/04 02:46:52;;;;;;;18.87;6.23;;;3.30;99.90;;;;;;4942592;28;20529;-52
2023/03/04 02:49:19;;;;;;;23.73;6.80;;;3.30;99.90;;;;;;4951922;28;20494;-53
2023/03/04 02:51:46;;;;;;;20.67;7.03;;;3.30;99.90;;;;;;4952153;28;20470;-53
2023/03/04 02:54:17;;;;;;;12.63;5.57;;;3.30;99.90;;;;;;4949117;28;20459;-52
2023/03/04 02:56:47;;;;;;;23.47;6.00;;;3.30;99.90;;;;;;4943701;28;20494;-52
2023/03/04 02:59:14;;;;;;;18.63;5.03;;;3.40;99.90;;;;;;4946308;28;21123;-51
2023/03/04 03:01:42;;;;;;;18.73;7.53;;;3.40;99.90;;;;;;4948588;28;20467;-51
2023/03/04 03:04:08;;;;;;;24.37;5.93;;;3.50;99.90;;;;;;4952020;28;20518;-53
2023/03/04 03:06:35;;;;;;;14.13;5.10;;;3.40;99.90;;;;;;4949842;28;21035;-53
2023/03/04 03:09:02;;;;;;;24.97;6.00;;;3.40;99.90;;;;;;4937896;28;20487;-53
2023/03/04 03:11:28;;;;;;;22.97;5.87;;;3.50;99.90;;;;;;4946312;28;20526;-53
2023/03/04 03:13:55;;;;;;;17.40;4.90;;;3.50;99.90;;;;;;4948873;28;20459;-52
2023/03/04 03:16:22;;;;;;;13.20;5.07;;;3.50;99.90;;;;;;4953517;28;20498;-53
2023/03/04 03:18:50;;;;;;;16.63;5.70;;;3.50;99.90;;;;;;4951456;28;20980;-53
2023/03/04 03:21:16;;;;;;;18.57;5.83;;;3.50;99.90;;;;;;4948619;28;20539;-53
2023/03/04 03:23:43;;;;;;;16.20;5.80;;;3.50;99.90;;;;;;4947921;28;20535;-53
2023/03/04 03:26:09;;;;;;;17.37;5.80;;;3.50;99.90;;;;;;4947932;29;20472;-53
2023/03/04 03:28:36;;;;;;;18.57;6.00;;;3.50;99.90;;;;;;4947795;28;20889;-53
2023/03/04 03:31:03;;;;;;;23.10;5.93;;;3.50;99.90;;;;;;4951004;29;20472;-53
2023/03/04 03:33:29;;;;;;;28.17;6.17;;;3.50;99.90;;;;;;4950073;28;20467;-53
2023/03/04 03:35:58;;;;;;;15.80;5.93;;;3.50;99.90;;;;;;4952311;29;20500;-53
2023/03/04 03:38:25;;;;;;;10.87;4.70;;;3.50;99.90;;;;;;4952515;29;20983;-53
2023/03/04 03:40:52;;;;;;;23.17;6.47;;;3.50;99.90;;;;;;4951725;28;20573;-53
2023/03/04 03:43:19;;;;;;;18.33;6.20;;;3.50;99.90;;;;;;4944999;29;20850;-52
2023/03/04 03:45:45;;;;;;;19.73;6.00;;;3.50;99.90;;;;;;4951647;29;20488;-53
2023/03/04 03:48:12;;;;;;;15.27;5.90;;;3.50;99.90;;;;;;4952102;28;20467;-53
2023/03/04 03:50:38;;;;;;;18.87;5.00;;;3.50;99.90;;;;;;4942826;28;20514;-52
2023/03/04 03:53:06;;;;;;;23.77;6.00;;;3.50;99.90;;;;;;4952451;28;20525;-52
2023/03/04 03:55:33;;;;;;;13.07;5.33;;;3.50;99.90;;;;;;4951614;28;20494;-51
2023/03/04 03:58:00;;;;;;;20.53;5.60;;;3.60;99.90;;;;;;4950590;28;20463;-52
2023/03/04 04:00:26;;;;;;;15.43;4.63;;;3.50;99.90;;;;;;4946281;29;20483;-52
2023/03/04 04:02:55;;;;;;;15.90;4.60;;;3.60;99.90;;;;;;4952300;28;20513;-51
2023/03/04 04:05:21;;;;;;;24.13;6.20;;;3.60;99.90;;;;;;4943257;28;20467;-52
2023/03/04 04:07:48;;;;;;;18.93;5.63;;;3.60;99.90;;;;;;4938480;29;20471;-52
2023/03/04 04:10:16;;;;;;;16.20;5.43;;;3.60;99.90;;;;;;4946771;28;20478;-52
2023/03/04 04:12:43;;;;;;;16.40;4.03;;;3.60;99.90;;;;;;4955936;28;20471;-52
2023/03/04 04:15:11;;;;;;;13.70;5.60;;;3.60;99.90;;;;;;4955019;29;20961;-51
2023/03/04 04:17:38;;;;;;;16.87;4.50;;;3.60;99.90;;;;;;4949796;28;20907;-52
2023/03/04 04:20:06;;;;;;;14.83;4.83;;;3.60;99.90;;;;;;4953537;28;20533;-52
2023/03/04 04:22:33;;;;;;;12.90;4.60;;;3.70;99.90;;;;;;4954792;28;20470;-52
2023/03/04 04:25:00;;;;;;;13.77;4.50;;;3.70;99.90;;;;;;4955237;29;20490;-52
2023/03/04 04:27:28;;;;;;;13.17;4.23;;;3.70;99.90;;;;;;4948970;28;20551;-51
2023/03/04 04:29:54;;;;;;;20.50;5.03;;;3.80;99.90;;;;;;4952853;28;20483;-53
2023/03/04 04:32:21;;;;;;;17.17;4.70;;;3.70;99.90;;;;;;4945377;28;20557;-52
2023/03/04 04:34:48;;;;;;;12.47;4.20;;;3.80;99.90;;;;;;4954361;28;21000;-52
2023/03/04 04:37:14;;;;;;;14.53;4.60;;;3.80;99.90;;;;;;4958428;28;20463;-51
2023/03/04 04:39:41;;;;;;;15.97;4.50;;;3.80;99.90;;;;;;4953859;28;20521;-52
2023/03/04 04:42:08;;;;;;;10.63;3.50;;;3.90;99.90;;;;;;4947585;28;20518;-52
2023/03/04 04:44:37;;;;;;;21.57;4.50;;;3.90;99.90;;;;;;4953532;29;20557;-52
2023/03/04 04:47:05;;;;;;;15.20;4.20;;;3.90;99.90;;;;;;4954189;29;21017;-51
2023/03/04 04:49:32;;;;;;;11.13;3.87;;;3.90;99.90;;;;;;4955124;28;20846;-52
2023/03/04 04:51:58;;;;;;;11.13;4.00;;;3.90;99.90;;;;;;4951151;29;20903;-52
2023/03/04 04:54:25;;;;;;;16.80;4.37;;;4.00;99.90;;;;;;4953905;28;20550;-52
2023/03/04 04:56:52;;;;;;;11.97;4.00;;;4.00;99.90;;;;;;4953672;29;20499;-52
2023/03/04 04:59:18;;;;;;;15.63;4.20;;;4.00;99.90;;;;;;4955022;28;20474;-52
2023/03/04 05:01:46;;;;;;;13.00;3.27;;;4.00;99.90;;;;;;4944709;29;20845;-52
2023/03/04 05:04:13;;;;;;;15.37;4.27;;;4.00;99.90;;;;;;4955473;29;20486;-52
2023/03/04 05:06:39;;;;;;;11.83;3.60;;;4.00;99.90;;;;;;4957504;28;20499;-52
2023/03/04 05:09:06;;;;;;;14.87;3.60;;;4.10;99.90;;;;;;4951647;28;20483;-52
2023/03/04 05:11:33;;;;;;;14.07;3.20;;;4.10;99.90;;;;;;4947172;28;20464;-52
2023/03/04 05:13:59;;;;;;;14.30;3.57;;;4.10;99.90;;;;;;4951681;29;20455;-52
2023/03/04 05:16:26;;;;;;;11.07;3.10;;;4.10;99.90;;;;;;4941078;29;20464;-52
2023/03/04 05:18:54;;;;;;;16.57;4.00;;;4.10;99.90;;;;;;4953726;28;20458;-52
2023/03/04 05:21:20;;;;;;;11.80;3.50;;;4.10;99.90;;;;;;4954158;28;20470;-52
2023/03/04 05:23:47;;;;;;;17.17;3.30;;;4.20;99.90;;;;;;4954325;29;21000;-52
2023/03/04 05:26:16;;;;;;;12.40;4.17;;;4.20;99.90;;;;;;4953304;28;20522;-52
2023/03/04 05:28:43;;;;;;;17.53;3.47;;;4.20;99.90;;;;;;4954795;28;20470;-52
2023/03/04 05:31:10;;;;;;;7.23;3.00;;;4.20;99.90;;;;;;4950342;29;20889;-52
2023/03/04 05:33:37;;;;;;;13.77;3.53;;;4.20;99.90;;;;;;4954477;29;20819;-52
2023/03/04 05:36:07;;;;;;;12.13;3.00;;;4.10;99.90;;;;;;4950037;29;20553;-52
2023/03/04 05:38:34;;;;;;;15.40;3.50;;;4.20;99.90;;;;;;4958067;28;20512;-53
2023/03/04 05:41:03;;;;;;;18.27;4.07;;;4.20;99.90;;;;;;4950844;28;21033;-51
2023/03/04 05:43:31;;;;;;;8.00;2.70;;;4.20;99.90;;;;;;4952937;28;20522;-53
2023/03/04 05:45:57;;;;;;;15.47;3.27;;;4.20;99.90;;;;;;4952432;28;20495;-53
2023/03/04 05:48:24;;;;;;;11.90;3.10;;;4.20;99.90;;;;;;4955774;28;20466;-52
2023/03/04 05:50:54;;;;;;;17.83;6.37;;;4.20;99.90;;;;;;4949832;28;20481;-53
2023/03/04 05:53:21;;;;;;;26.57;12.60;;;4.20;99.90;;;;;;4953867;28;20478;-52
2023/03/04 05:55:48;;;;;;;31.77;14.13;;;4.20;99.90;;;;;;4952451;28;20541;-52
2023/03/04 05:58:16;;;;;;;18.77;9.03;;;4.20;99.90;;;;;;4949494;28;20847;-52
2023/03/04 06:00:42;;;;;;;16.00;8.60;;;4.20;99.90;;;;;;4951999;28;20486;-52
2023/03/04 06:03:15;;;;;;;19.23;5.20;;;4.20;99.90;;;;;;4949792;29;20880;-52
2023/03/04 06:05:41;;;;;;;8.27;4.60;;;4.20;99.90;;;;;;4942357;29;20477;-52
2023/03/04 06:08:08;;;;;;;18.47;6.93;;;4.20;99.90;;;;;;4952771;28;20463;-52
2023/03/04 06:10:36;;;;;;;15.27;4.07;;;4.20;99.90;;;;;;4952506;28;20577;-52
2023/03/04 06:13:02;;;;;;;10.60;2.63;;;4.20;99.90;;;;;;4950551;29;20487;-52
2023/03/04 06:15:29;;;;;;;10.67;2.93;;;4.20;99.90;;;;;;4946439;28;21175;-52
2023/03/04 06:17:56;;;;;;;14.67;5.20;;;4.20;99.90;;;;;;4953545;28;20481;-53
2023/03/04 06:20:22;;;;;;;12.93;4.67;;;4.20;99.90;;;;;;4949520;28;20490;-52
2023/03/04 06:22:49;;;;;;;10.60;4.13;;;4.20;99.90;;;;;;4952890;29;20470;-52
2023/03/04 06:25:16;;;;;;;15.53;4.00;;;4.20;99.90;;;;;;4948895;29;20518;-52
2023/03/04 06:27:44;;;;;;;9.67;3.03;;;4.20;99.90;;;;;;4953329;29;20466;-52
2023/03/04 06:30:11;;;;;;;4.50;2.57;;;4.20;99.90;;;;;;4943944;28;20506;-52
2023/03/04 06:32:39;;;;;;;7.50;3.13;;;4.20;99.90;;;;;;4952354;28;20526;-52
2023/03/04 06:35:06;;;;;;;11.43;3.37;;;4.20;99.90;;;;;;4949740;29;20460;-52
2023/03/04 06:37:33;;;;;;;12.83;3.27;;;4.20;99.90;;;;;;4948163;28;20471;-53
2023/03/04 06:39:59;;;;;;;7.30;3.03;;;4.20;99.90;;;;;;4953030;28;20498;-53
2023/03/04 06:42:26;;;;;;;5.30;2.00;;;4.20;99.90;;;;;;4949559;28;20455;-52
2023/03/04 06:44:54;;;;;;;6.77;2.53;;;4.20;99.90;;;;;;4952040;29;20227;-52
2023/03/04 06:47:20;;;;;;;4.43;1.73;;;4.30;99.90;;;;;;4951012;28;20476;-52
2023/03/04 06:49:47;;;;;;;15.43;2.57;;;4.20;99.90;;;;;;4950242;28;20569;-53
2023/03/04 06:52:14;;;;;;;6.23;1.60;;;4.30;99.90;;;;;;4950856;28;20452;-52
2023/03/04 06:54:40;;;;;;;6.23;2.77;;;4.30;97.70;;;;;;4946780;28;20510;-52
2023/03/04 06:57:07;;;;;;;6.47;2.57;;;4.30;93.70;;;;;;4950699;28;20564;-52
2023/03/04 06:59:34;;;;;;;8.67;2.97;;;4.20;88.60;;;;;;4952714;28;20546;-51
2023/03/04 07:02:02;;;;;;;6.77;2.57;;;4.20;88.30;;;;;;4952737;28;20961;-52
2023/03/04 07:04:28;;;;;;;5.90;2.43;;;4.20;86.80;;;;;;4949804;28;20604;-52
2023/03/04 07:06:55;;;;;;;5.20;2.10;;;4.30;87.20;;;;;;4944943;28;20505;-52
2023/03/04 07:09:22;;;;;;;10.43;2.47;;;4.30;99.80;;;;;;4950762;28;20486;-52
2023/03/04 07:11:48;;;;;;;93.10;46.57;;;4.30;99.70;;;;;;4939710;29;20463;-52
2023/03/04 07:14:15;;;;;;;13.50;3.27;;;4.40;99.90;;;;;;4941543;28;20511;-52
2023/03/04 07:16:41;;;;;;;7.93;2.63;;;4.40;99.90;;;;;;4945071;29;20553;-52
2023/03/04 07:19:09;;;;;;;7.80;2.50;;;4.40;99.90;;;;;;4949350;28;20541;-52
2023/03/04 07:21:36;;;;;;;5.43;2.67;;;4.40;99.90;;;;;;4943023;29;20466;-51
2023/03/04 07:24:03;;;;;;;3.93;1.83;;;4.40;98.90;;;;;;4948760;28;20487;-50
2023/03/04 07:26:30;;;;;;;6.40;1.70;;;4.50;98.00;;;;;;4945704;28;20470;-50
2023/03/04 07:28:58;;;;;;;5.30;2.20;;;4.50;99.90;;;;;;4949763;28;20569;-51
2023/03/04 07:31:28;;;;;;;6.83;2.40;;;4.50;99.20;;;;;;4941199;28;20478;-53
2023/03/04 07:33:57;;;;;;;5.23;1.90;;;4.50;92.50;;;;;;4944848;29;20455;-52
2023/03/04 07:36:25;;;;;;;9.23;3.63;;;4.50;82.20;;;;;;4950119;28;20558;-51
2023/03/04 07:38:53;;;;;;;5.57;3.47;;;4.40;73.90;;;;;;4943774;28;20467;-52
2023/03/04 07:41:21;;;;;;;5.03;3.07;;;4.40;66.70;;;;;;4942804;29;20510;-52
2023/03/04 07:43:47;;;;;;;11.47;2.90;;;4.40;62.80;;;;;;4945991;28;20578;-52
2023/03/04 07:46:15;;;;;;;12.50;3.50;;;4.40;59.20;;;;;;4947934;29;20521;-52
2023/03/04 07:48:42;;;;;;;5.13;3.00;;;4.30;56.80;;;;;;4955088;28;20567;-52
2023/03/04 07:51:11;;;;;;;10.80;3.90;;;4.30;54.70;;;;;;4954042;28;20494;-52
2023/03/04 07:53:40;;;;;;;7.30;2.80;;;4.40;53.40;;;;;;4954051;29;20852;-52
2023/03/04 07:56:10;;;;;;;21.67;16.50;;;4.40;51.30;;;;;;4954059;28;20517;-53
2023/03/04 07:58:37;;;;;;;4.97;2.40;;;4.30;50.20;;;;;;4953069;29;20537;-52
2023/03/04 08:01:09;;;;;;;16.37;2.63;;;4.40;47.50;;;;;;4951984;28;20562;-52
2023/03/04 08:03:36;;;;;;;4.30;2.30;;;4.30;42.90;;;;;;4949165;29;20474;-52
2023/03/04 08:06:05;;;;;;;5.40;2.50;;;4.40;42.30;;;;;;4954212;28;20471;-52
2023/03/04 08:08:32;;;;;;;7.93;2.70;;;4.40;42.20;;;;;;4953307;29;20467;-52
2023/03/04 08:11:00;;;;;;;3.63;2.33;;;4.40;41.10;;;;;;4950783;28;20487;-52
2023/03/04 08:13:27;;;;;;;12.40;3.90;;;4.40;39.70;;;;;;4951777;28;20473;-52
2023/03/04 08:15:56;;;;;;;41.93;34.47;;;4.50;39.30;;;;;;4949583;29;20467;-52
2023/03/04 08:18:22;;;;;;;4.77;1.87;;;4.50;39.20;;;;;;4946397;28;20526;-52
2023/03/04 08:20:49;;;;;;;4.10;2.70;;;4.50;40.20;;;;;;4954276;28;20918;-51
2023/03/04 08:23:15;;;;;;;5.50;2.00;;;4.50;42.90;;;;;;4952451;29;20459;-51
2023/03/04 08:25:43;;;;;;;6.63;5.87;;;4.50;51.30;;;;;;4954372;28;20518;-52
2023/03/04 08:28:12;;;;;;;5.70;3.30;;;4.50;62.70;;;;;;4952034;29;20880;-52
2023/03/04 08:30:39;;;;;;;8.13;2.03;;;4.60;63.70;;;;;;4955074;28;20920;-51
2023/03/04 08:33:06;;;;;;;6.70;3.70;;;4.60;66.90;;;;;;4954203;28;20474;-52
2023/03/04 08:35:33;;;;;;;4.87;2.23;;;4.60;64.50;;;;;;4954428;29;20465;-51
2023/03/04 08:38:00;;;;;;;5.93;2.37;;;4.60;66.60;;;;;;4955039;28;20545;-52
2023/03/04 08:40:27;;;;;;;5.30;3.27;;;4.70;64.10;;;;;;4948082;28;20549;-51
2023/03/04 08:42:53;;;;;;;4.03;1.83;;;4.70;65.40;;;;;;4952688;28;20470;-53
2023/03/04 08:45:21;;;;;;;8.60;2.80;;;4.80;73.00;;;;;;4950537;28;20494;-54
2023/03/04 08:47:48;;;;;;;7.20;2.27;;;4.90;69.70;;;;;;4949480;28;20470;-52
2023/03/04 08:50:14;;;;;;;9.70;2.30;;;4.90;84.50;;;;;;4942522;28;20570;-52
2023/03/04 08:52:41;;;;;;;9.37;2.23;;;5.00;85.40;;;;;;4942227;28;20566;-52
2023/03/04 08:55:08;;;;;;;5.93;2.77;;;4.90;99.90;;;;;;4938651;28;20544;-52
2023/03/04 08:57:35;;;;;;;6.73;2.30;;;5.00;99.90;;;;;;4943422;28;20854;-52
2023/03/04 09:00:01;;;;;;;8.50;2.47;;;5.00;99.90;;;;;;4944380;28;20596;-52
2023/03/04 09:02:29;;;;;;;11.70;2.80;;;5.00;99.90;;;;;;4954292;28;20467;-51
2023/03/04 09:04:56;;;;;;;11.60;3.30;;;5.10;99.90;;;;;;4948926;28;20581;-51
2023/03/04 09:07:22;;;;;;;11.40;3.90;;;5.20;99.90;;;;;;4952284;28;20534;-51
2023/03/04 09:09:49;;;;;;;14.67;3.10;;;5.30;99.90;;;;;;4946702;28;20490;-52
2023/03/04 09:12:15;;;;;;;11.67;4.50;;;5.30;99.90;;;;;;4948031;28;20499;-52
2023/03/04 09:14:42;;;;;;;8.87;5.00;;;5.40;99.90;;;;;;4947376;28;20499;-52
2023/03/04 09:17:09;;;;;;;7.00;3.63;;;5.40;30.50;;;;;;4947434;28;20471;-53
2023/03/04 09:19:37;;;;;;;7.97;2.60;;;5.50;39.70;;;;;;4949969;28;20491;-53
2023/03/04 09:22:04;;;;;;;14.33;3.37;;;5.50;99.90;;;;;;4951940;29;20475;-52
2023/03/04 09:24:30;;;;;;;13.97;4.17;;;5.50;99.90;;;;;;4948634;29;20515;-51
2023/03/04 09:26:57;;;;;;;12.43;3.20;;;5.50;23.40;;;;;;4946299;28;20499;-53
2023/03/04 09:29:24;;;;;;;19.10;3.43;;;5.50;34.30;;;;;;4954645;28;20491;-52
2023/03/04 09:31:50;;;;;;;25.30;8.87;;;5.60;26.30;;;;;;4947329;29;20527;-52
2023/03/04 09:34:17;;;;;;;10.40;2.80;;;5.60;41.10;;;;;;4945756;28;20588;-52
2023/03/04 09:36:45;;;;;;;8.13;3.37;;;5.60;49.90;;;;;;4946034;29;20479;-54
2023/03/04 09:39:11;;;;;;;14.20;4.13;;;5.70;47.20;;;;;;4947429;28;20522;-55
2023/03/04 09:41:42;;;;;;;13.13;4.57;;;5.80;47.80;;;;;;4947923;28;20850;-55
2023/03/04 09:44:16;;;;;;;13.30;3.60;;;5.80;51.00;;;;;;4950733;29;20463;-57
2023/03/04 09:46:45;;;;;;;15.87;3.80;;;5.90;51.70;;;;;;4950294;29;20462;-54
2023/03/04 09:49:12;;;;;;;10.20;4.20;;;6.00;55.10;;;;;;4943678;29;20468;-55
2023/03/04 09:51:49;;;;;;;9.30;3.83;;;6.00;65.30;;;;;;4951799;29;20471;-57
2023/03/04 09:54:25;;;;;;;11.47;3.70;;;6.00;73.80;;;;;;4946615;29;21039;-55
2023/03/04 09:56:59;;;;;;;15.10;3.37;;;6.10;79.00;;;;;;4952882;28;20976;-56
2023/03/04 09:59:32;;;;;;;9.50;3.13;;;6.20;77.20;;;;;;4952616;28;21099;-55
2023/03/04 10:02:01;;;;;;;26.43;7.07;;;6.30;79.80;;;;;;4955172;29;20459;-55
2023/03/04 10:04:34;;;;;;;18.43;4.40;;;6.30;81.30;;;;;;4954331;29;20482;-55
2023/03/04 10:07:03;;;;;;;17.83;5.80;;;6.40;82.80;;;;;;4954049;28;20459;-54
2023/03/04 10:09:40;;;;;;;14.30;5.27;;;6.40;82.20;;;;;;4953982;28;20514;-56
2023/03/04 10:12:11;;;;;;;15.97;5.00;;;6.50;86.90;;;;;;4953527;28;20487;-56
2023/03/04 10:14:43;;;;;;;13.23;3.70;;;6.60;88.60;;;;;;4952717;29;20462;-56
2023/03/04 10:17:16;;;;;;;25.53;4.97;;;6.60;91.60;;;;;;4953121;28;20474;-56
2023/03/04 10:19:52;;;;;;;11.80;5.90;;;6.80;99.90;;;;;;4953176;28;20483;-56
2023/03/04 10:22:26;;;;;;;17.77;5.97;;;6.60;99.90;;;;;;4938620;28;20537;-54
2023/03/04 10:24:55;;;;;;;19.73;3.90;;;6.60;97.70;;;;;;4953396;29;20482;-56
2023/03/04 10:27:23;;;;;;;18.73;4.67;;;6.70;96.40;;;;;;4947499;28;20470;-55
2023/03/04 10:29:50;;;;;;;15.87;4.60;;;6.90;90.60;;;;;;4950805;28;20926;-54
2023/03/04 10:32:19;;;;;;;16.03;4.50;;;6.80;99.90;;;;;;4952114;28;20463;-54
2023/03/04 10:34:46;;;;;;;22.37;5.27;;;6.90;98.60;;;;;;4945520;29;20444;-54
2023/03/04 10:37:13;;;;;;;12.37;3.93;;;6.90;99.60;;;;;;4951793;29;20503;-55
2023/03/04 10:39:42;;;;;;;17.40;4.30;;;7.10;99.90;;;;;;4950273;28;20483;-55
2023/03/04 10:42:29;;;;;;;20.57;4.03;;;7.10;99.90;;;;;;4952124;28;20883;-56
2023/03/04 10:44:58;;;;;;;13.30;3.67;;;7.00;99.90;;;;;;4953668;29;20483;-55
2023/03/04 10:47:27;;;;;;;27.10;4.70;;;7.00;99.40;;;;;;4953679;29;20945;-56
2023/03/04 10:49:55;;;;;;;12.53;3.83;;;6.80;99.90;;;;;;4944069;29;20491;-55
2023/03/04 10:52:29;;;;;;;18.50;4.20;;;7.00;99.90;;;;;;4951635;28;20506;-55
2023/03/04 10:54:59;;;;;;;17.83;3.90;;;7.00;99.90;;;;;;4953172;29;20471;-55
2023/03/04 10:57:34;;;;;;;14.83;3.30;;;7.00;99.90;;;;;;4953121;28;20471;-56
2023/03/04 11:00:01;;;;;;;18.23;3.93;;;6.90;99.90;;;;;;4955409;28;20999;-54
2023/03/04 11:02:30;;;;;;;17.43;4.60;;;6.80;99.90;;;;;;4951981;29;20475;-55
2023/03/04 11:05:07;;;;;;;21.83;4.50;;;6.90;99.90;;;;;;4949726;28;20490;-55
2023/03/04 11:07:39;;;;;;;17.60;4.60;;;6.80;99.90;;;;;;4947788;29;20513;-55
2023/03/04 11:10:15;;;;;;;14.47;3.93;;;6.80;99.90;;;;;;4953683;28;20467;-56
2023/03/04 11:12:47;;;;;;;15.70;5.30;;;6.90;99.90;;;;;;4953276;28;20466;-54
2023/03/04 11:15:19;;;;;;;15.27;4.00;;;6.80;99.90;;;;;;4946704;29;20458;-56
2023/03/04 11:17:50;;;;;;;25.37;4.90;;;6.80;99.90;;;;;;4950592;28;20470;-55
2023/03/04 11:20:26;;;;;;;19.57;5.53;;;7.00;99.90;;;;;;4951365;28;21035;-55
2023/03/04 11:22:54;;;;;;;26.63;6.23;;;7.10;99.90;;;;;;4952110;28;20888;-55
2023/03/04 11:25:26;;;;;;;18.03;4.80;;;6.80;99.90;;;;;;4944526;28;20486;-55
2023/03/04 11:27:55;;;;;;;17.00;4.60;;;6.60;99.90;;;;;;4941553;28;20471;-55
2023/03/04 11:30:33;;;;;;;18.57;4.50;;;6.70;99.90;;;;;;4947172;28;20487;-55
2023/03/04 11:33:08;;;;;;;29.60;5.43;;;6.60;99.90;;;;;;4943152;28;20471;-55
2023/03/04 11:35:44;;;;;;;24.97;4.50;;;6.70;99.90;;;;;;4951071;29;20462;-54
2023/03/04 11:38:18;;;;;;;14.13;4.37;;;6.70;99.90;;;;;;4947224;28;20463;-55
2023/03/04 11:40:52;;;;;;;16.10;3.90;;;6.70;99.90;;;;;;4949377;29;20486;-55
2023/03/04 11:43:25;;;;;;;20.53;5.00;;;6.70;99.90;;;;;;4948028;28;21063;-55
2023/03/04 11:46:34;;;;;;;15.57;3.97;;;6.90;99.90;;;;;;4946402;28;20514;-54
2023/03/04 11:49:18;;;;;;;14.33;4.33;;;6.90;99.90;;;;;;4945760;28;20482;-55
2023/03/04 11:51:49;;;;;;;18.83;4.77;;;6.80;99.90;;;;;;4946075;28;20466;-56
2023/03/04 11:54:23;;;;;;;15.87;4.30;;;6.80;99.90;;;;;;4951742;28;20594;-54
2023/03/04 11:56:56;;;;;;;15.13;3.57;;;7.00;99.90;;;;;;4948227;29;20458;-54
2023/03/04 11:59:51;;;;;;;18.27;4.80;;;7.00;99.90;;;;;;4952178;28;20542;-53
2023/03/04 12:02:21;;;;;;;26.30;5.83;;;7.10;99.90;;;;;;4945437;28;22143;-55
2023/03/04 12:05:18;;;;;;;15.40;4.57;;;7.00;99.90;;;;;;4943441;28;20463;-55
2023/03/04 12:08:06;;;;;;;23.07;4.53;;;6.90;99.90;;;;;;4955244;28;20459;-54
2023/03/04 12:10:38;;;;;;;16.30;4.00;;;6.70;99.90;;;;;;4949023;28;20491;-54
2023/03/04 12:13:35;;;;;;;19.83;4.63;;;6.70;99.90;;;;;;4951117;28;20459;-54
2023/03/04 12:16:17;;;;;;;16.47;4.03;;;6.70;99.90;;;;;;4950101;29;20466;-54
2023/03/04 12:18:57;;;;;;;13.73;4.03;;;6.60;99.90;;;;;;4951640;28;20462;-58
2023/03/04 12:21:42;;;;;;;11.40;3.70;;;6.60;99.90;;;;;;4952694;29;20446;-55
2023/03/04 12:24:34;;;;;;;13.70;3.87;;;6.40;99.90;;;;;;4946785;28;20454;-56
2023/03/04 12:27:09;;;;;;;13.13;4.50;;;6.30;99.90;;;;;;4952763;28;20510;-56
2023/03/04 12:29:45;;;;;;;18.13;3.40;;;6.30;99.90;;;;;;4955997;28;20549;-57
2023/03/04 12:32:21;;;;;;;12.60;3.50;;;6.30;99.90;;;;;;4954080;28;20450;-56
2023/03/04 12:35:08;;;;;;;20.53;4.13;;;6.30;99.90;;;;;;4944723;28;20655;-55
2023/03/04 12:37:57;;;;;;;15.30;2.87;;;6.40;99.90;;;;;;4950307;28;20952;-55
2023/03/04 12:40:31;;;;;;;12.80;3.67;;;6.30;99.90;;;;;;4942130;29;20483;-56
2023/03/04 12:43:08;;;;;;;12.77;4.00;;;6.10;99.90;;;;;;4953336;28;20470;-56
2023/03/04 12:45:43;;;;;;;8.70;3.40;;;6.20;99.90;;;;;;4947614;28;20999;-57
2023/03/04 12:48:21;;;;;;;12.03;3.40;;;6.30;99.90;;;;;;4950829;28;20470;-56
2023/03/04 12:50:58;;;;;;;16.23;4.20;;;6.20;99.90;;;;;;4947102;28;20490;-56
2023/03/04 12:53:33;;;;;;;14.47;3.67;;;6.20;99.90;;;;;;4945591;28;20467;-56
2023/03/04 12:56:01;;;;;;;15.30;4.33;;;6.20;99.90;;;;;;4955044;29;20502;-55
2023/03/04 12:58:30;;;;;;;19.83;4.77;;;6.30;99.90;;;;;;4954757;28;21036;-57